sensor_id;sensor_type;location;lat;lon;timestamp;P1;durP1;ratioP1;P2;durP2;ratioP2
20034;SDS011;10178;48.034;9.800;2023-04-15T00:01:22;2.83;;;2.13;;
20034;SDS011;10178;48.034;9.800;2023-04-15T00:03:49;3.58;;;2.17;;
20034;SDS011;10178;48.034;9.800;2023-04-15T00:06:17;4.43;;;2.38;;
20034;SDS011;10178;48.034;9.800;2023-04-15T00:08:43;4.18;;;2.47;;
20034;SDS011;10178;48.034;9.800;2023-04-15T00:11:09;4.03;;;2.55;;
20034;SDS011;10178;48.034;9.800;2023-04-15T00:13:36;9.13;;;4.30;;
20034;SDS011;10178;48.034;9.800;2023-04-15T00:16:03;11.88;;;6.10;;
20034;SDS011;10178;48.034;9.800;2023-04-15T00:18:30;4.15;;;2.67;;
20034;SDS011;10178;48.034;9.800;2023-04-15T00:20:56;6.07;;;2.85;;
20034;SDS011;10178;48.034;9.800;2023-04-15T00:23:22;4.70;;;2.60;;
20034;SDS011;10178;48.034;9.800;2023-04-15T00:25:48;4.63;;;2.40;;
20034;SDS011;10178;48.034;9.800;2023-04-15T00:28:14;5.43;;;2.25;;
20034;SDS011;10178;48.034;9.800;2023-04-15T00:30:40;5.22;;;2.78;;
20034;SDS011;10178;48.034;9.800;2023-04-15T00:33:06;4.43;;;2.58;;
20034;SDS011;10178;48.034;9.800;2023-04-15T00:35:32;5.28;;;2.15;;
20034;SDS011;10178;48.034;9.800;2023-04-15T00:37:58;5.10;;;2.80;;
20034;SDS011;10178;48.034;9.800;2023-04-15T00:40:24;4.15;;;2.50;;
20034;SDS011;10178;48.034;9.800;2023-04-15T00:42:50;5.47;;;2.47;;
20034;SDS011;10178;48.034;9.800;2023-04-15T00:45:16;7.05;;;2.65;;
20034;SDS011;10178;48.034;9.800;2023-04-15T00:47:42;3.30;;;2.22;;
20034;SDS011;10178;48.034;9.800;2023-04-15T00:50:08;7.28;;;2.25;;
20034;SDS011;10178;48.034;9.800;2023-04-15T00:52:35;3.58;;;2.20;;
20034;SDS011;10178;48.034;9.800;2023-04-15T00:55:01;5.68;;;2.67;;
20034;SDS011;10178;48.034;9.800;2023-04-15T00:57:28;7.27;;;2.73;;
20034;SDS011;10178;48.034;9.800;2023-04-15T00:59:55;6.63;;;3.00;;
20034;SDS011;10178;48.034;9.800;2023-04-15T01:02:21;3.00;;;2.15;;
20034;SDS011;10178;48.034;9.800;2023-04-15T01:04:48;4.27;;;2.03;;
20034;SDS011;10178;48.034;9.800;2023-04-15T01:07:13;2.80;;;2.30;;
20034;SDS011;10178;48.034;9.800;2023-04-15T01:09:39;3.03;;;2.20;;
20034;SDS011;10178;48.034;9.800;2023-04-15T01:12:06;4.65;;;2.33;;
20034;SDS011;10178;48.034;9.800;2023-04-15T01:14:35;2.88;;;1.65;;
20034;SDS011;10178;48.034;9.800;2023-04-15T01:17:01;2.58;;;1.92;;
20034;SDS011;10178;48.034;9.800;2023-04-15T01:19:27;4.28;;;2.03;;
20034;SDS011;10178;48.034;9.800;2023-04-15T01:21:53;2.58;;;1.85;;
20034;SDS011;10178;48.034;9.800;2023-04-15T01:24:19;3.15;;;2.00;;
20034;SDS011;10178;48.034;9.800;2023-04-15T01:26:45;4.32;;;2.00;;
20034;SDS011;10178;48.034;9.800;2023-04-15T01:29:12;5.38;;;2.53;;
20034;SDS011;10178;48.034;9.800;2023-04-15T01:31:39;2.65;;;1.90;;
20034;SDS011;10178;48.034;9.800;2023-04-15T01:34:05;3.92;;;2.00;;
20034;SDS011;10178;48.034;9.800;2023-04-15T01:36:30;3.65;;;1.88;;
20034;SDS011;10178;48.034;9.800;2023-04-15T01:38:56;3.83;;;1.95;;
20034;SDS011;10178;48.034;9.800;2023-04-15T01:41:26;3.97;;;2.13;;
20034;SDS011;10178;48.034;9.800;2023-04-15T01:43:52;6.95;;;2.33;;
20034;SDS011;10178;48.034;9.800;2023-04-15T01:46:18;4.32;;;2.40;;
20034;SDS011;10178;48.034;9.800;2023-04-15T01:48:44;3.53;;;1.88;;
20034;SDS011;10178;48.034;9.800;2023-04-15T01:51:10;4.90;;;2.25;;
20034;SDS011;10178;48.034;9.800;2023-04-15T01:53:36;4.95;;;1.90;;
20034;SDS011;10178;48.034;9.800;2023-04-15T01:56:01;3.97;;;2.45;;
20034;SDS011;10178;48.034;9.800;2023-04-15T01:58:28;3.47;;;1.73;;
20034;SDS011;10178;48.034;9.800;2023-04-15T02:00:54;3.03;;;1.98;;
20034;SDS011;10178;48.034;9.800;2023-04-15T02:03:19;6.15;;;2.13;;
20034;SDS011;10178;48.034;9.800;2023-04-15T02:05:45;3.08;;;2.15;;
20034;SDS011;10178;48.034;9.800;2023-04-15T02:08:11;3.97;;;2.45;;
20034;SDS011;10178;48.034;9.800;2023-04-15T02:10:37;3.58;;;2.00;;
20034;SDS011;10178;48.034;9.800;2023-04-15T02:13:03;3.70;;;1.80;;
20034;SDS011;10178;48.034;9.800;2023-04-15T02:15:29;4.38;;;1.80;;
20034;SDS011;10178;48.034;9.800;2023-04-15T02:17:54;4.13;;;2.30;;
20034;SDS011;10178;48.034;9.800;2023-04-15T02:20:20;4.82;;;2.50;;
20034;SDS011;10178;48.034;9.800;2023-04-15T02:22:47;4.85;;;2.25;;
20034;SDS011;10178;48.034;9.800;2023-04-15T02:25:13;4.63;;;2.22;;
20034;SDS011;10178;48.034;9.800;2023-04-15T02:27:40;4.20;;;1.90;;
20034;SDS011;10178;48.034;9.800;2023-04-15T02:30:06;2.05;;;1.85;;
20034;SDS011;10178;48.034;9.800;2023-04-15T02:32:33;3.58;;;2.25;;
20034;SDS011;10178;48.034;9.800;2023-04-15T02:35:05;2.67;;;1.83;;
20034;SDS011;10178;48.034;9.800;2023-04-15T02:37:33;3.15;;;1.88;;
20034;SDS011;10178;48.034;9.800;2023-04-15T02:40:05;2.72;;;2.00;;
20034;SDS011;10178;48.034;9.800;2023-04-15T02:42:32;4.07;;;1.95;;
20034;SDS011;10178;48.034;9.800;2023-04-15T02:44:57;3.90;;;1.85;;
20034;SDS011;10178;48.034;9.800;2023-04-15T02:47:23;4.40;;;1.80;;
20034;SDS011;10178;48.034;9.800;2023-04-15T02:49:49;4.05;;;1.80;;
20034;SDS011;10178;48.034;9.800;2023-04-15T02:52:14;4.78;;;1.98;;
20034;SDS011;10178;48.034;9.800;2023-04-15T02:54:40;3.92;;;1.80;;
20034;SDS011;10178;48.034;9.800;2023-04-15T02:57:06;4.20;;;2.13;;
20034;SDS011;10178;48.034;9.800;2023-04-15T02:59:32;4.05;;;1.83;;
20034;SDS011;10178;48.034;9.800;2023-04-15T03:01:57;3.58;;;1.98;;
20034;SDS011;10178;48.034;9.800;2023-04-15T03:04:25;3.50;;;2.05;;
20034;SDS011;10178;48.034;9.800;2023-04-15T03:06:51;4.07;;;2.13;;
20034;SDS011;10178;48.034;9.800;2023-04-15T03:09:16;4.38;;;2.13;;
20034;SDS011;10178;48.034;9.800;2023-04-15T03:11:42;3.13;;;2.10;;
20034;SDS011;10178;48.034;9.800;2023-04-15T03:14:08;2.00;;;1.48;;
20034;SDS011;10178;48.034;9.800;2023-04-15T03:16:33;3.60;;;1.90;;
20034;SDS011;10178;48.034;9.800;2023-04-15T03:18:59;4.03;;;1.75;;
20034;SDS011;10178;48.034;9.800;2023-04-15T03:21:25;2.47;;;1.80;;
20034;SDS011;10178;48.034;9.800;2023-04-15T03:23:50;2.50;;;1.60;;
20034;SDS011;10178;48.034;9.800;2023-04-15T03:26:26;2.83;;;1.40;;
20034;SDS011;10178;48.034;9.800;2023-04-15T03:28:53;2.53;;;1.58;;
20034;SDS011;10178;48.034;9.800;2023-04-15T03:31:19;3.80;;;1.83;;
20034;SDS011;10178;48.034;9.800;2023-04-15T03:33:44;3.55;;;1.98;;
20034;SDS011;10178;48.034;9.800;2023-04-15T03:36:10;2.78;;;1.58;;
20034;SDS011;10178;48.034;9.800;2023-04-15T03:38:35;1.77;;;1.60;;
20034;SDS011;10178;48.034;9.800;2023-04-15T03:41:01;3.13;;;1.73;;
20034;SDS011;10178;48.034;9.800;2023-04-15T03:43:26;4.47;;;1.63;;
20034;SDS011;10178;48.034;9.800;2023-04-15T03:45:52;2.08;;;1.63;;
20034;SDS011;10178;48.034;9.800;2023-04-15T03:48:18;4.47;;;1.80;;
20034;SDS011;10178;48.034;9.800;2023-04-15T03:50:43;3.45;;;1.83;;
20034;SDS011;10178;48.034;9.800;2023-04-15T03:53:10;4.73;;;1.83;;
20034;SDS011;10178;48.034;9.800;2023-04-15T03:55:35;3.60;;;1.57;;
20034;SDS011;10178;48.034;9.800;2023-04-15T03:58:01;2.43;;;1.67;;
20034;SDS011;10178;48.034;9.800;2023-04-15T04:00:27;5.07;;;2.20;;
20034;SDS011;10178;48.034;9.800;2023-04-15T04:02:53;4.77;;;1.90;;
20034;SDS011;10178;48.034;9.800;2023-04-15T04:05:18;2.90;;;1.83;;
20034;SDS011;10178;48.034;9.800;2023-04-15T04:07:44;3.90;;;2.27;;
20034;SDS011;10178;48.034;9.800;2023-04-15T04:10:10;4.17;;;2.20;;
20034;SDS011;10178;48.034;9.800;2023-04-15T04:12:35;4.43;;;2.00;;
20034;SDS011;10178;48.034;9.800;2023-04-15T04:15:01;2.33;;;1.67;;
20034;SDS011;10178;48.034;9.800;2023-04-15T04:17:27;3.93;;;2.00;;
20034;SDS011;10178;48.034;9.800;2023-04-15T04:19:52;4.57;;;1.60;;
20034;SDS011;10178;48.034;9.800;2023-04-15T04:22:21;4.72;;;2.00;;
20034;SDS011;10178;48.034;9.800;2023-04-15T04:24:48;2.87;;;1.80;;
20034;SDS011;10178;48.034;9.800;2023-04-15T04:27:13;3.75;;;1.90;;
20034;SDS011;10178;48.034;9.800;2023-04-15T04:29:39;3.83;;;1.33;;
20034;SDS011;10178;48.034;9.800;2023-04-15T04:32:05;3.13;;;1.70;;
20034;SDS011;10178;48.034;9.800;2023-04-15T04:34:31;2.57;;;1.53;;
20034;SDS011;10178;48.034;9.800;2023-04-15T04:36:56;3.43;;;2.07;;
20034;SDS011;10178;48.034;9.800;2023-04-15T04:39:22;3.15;;;1.50;;
20034;SDS011;10178;48.034;9.800;2023-04-15T04:41:48;2.07;;;1.87;;
20034;SDS011;10178;48.034;9.800;2023-04-15T04:44:14;2.75;;;1.63;;
20034;SDS011;10178;48.034;9.800;2023-04-15T04:46:40;3.47;;;1.70;;
20034;SDS011;10178;48.034;9.800;2023-04-15T04:49:05;2.75;;;1.88;;
20034;SDS011;10178;48.034;9.800;2023-04-15T04:51:31;2.30;;;1.63;;
20034;SDS011;10178;48.034;9.800;2023-04-15T04:53:57;3.53;;;1.50;;
20034;SDS011;10178;48.034;9.800;2023-04-15T04:56:22;2.77;;;1.50;;
20034;SDS011;10178;48.034;9.800;2023-04-15T04:58:48;3.10;;;1.67;;
20034;SDS011;10178;48.034;9.800;2023-04-15T05:01:13;2.13;;;1.50;;
20034;SDS011;10178;48.034;9.800;2023-04-15T05:03:39;3.17;;;1.73;;
20034;SDS011;10178;48.034;9.800;2023-04-15T05:06:05;2.65;;;1.38;;
20034;SDS011;10178;48.034;9.800;2023-04-15T05:08:32;2.03;;;1.40;;
20034;SDS011;10178;48.034;9.800;2023-04-15T05:10:58;2.50;;;2.00;;
20034;SDS011;10178;48.034;9.800;2023-04-15T05:13:24;4.68;;;1.75;;
20034;SDS011;10178;48.034;9.800;2023-04-15T05:15:50;2.03;;;1.70;;
20034;SDS011;10178;48.034;9.800;2023-04-15T05:18:15;4.13;;;2.05;;
20034;SDS011;10178;48.034;9.800;2023-04-15T05:20:41;2.90;;;2.00;;
20034;SDS011;10178;48.034;9.800;2023-04-15T05:23:07;3.47;;;1.60;;
20034;SDS011;10178;48.034;9.800;2023-04-15T05:25:32;3.63;;;1.87;;
20034;SDS011;10178;48.034;9.800;2023-04-15T05:27:58;2.93;;;1.63;;
20034;SDS011;10178;48.034;9.800;2023-04-15T05:30:24;3.47;;;1.50;;
20034;SDS011;10178;48.034;9.800;2023-04-15T05:32:50;5.20;;;1.70;;
20034;SDS011;10178;48.034;9.800;2023-04-15T05:35:16;4.13;;;1.67;;
20034;SDS011;10178;48.034;9.800;2023-04-15T05:37:42;2.23;;;1.40;;
20034;SDS011;10178;48.034;9.800;2023-04-15T05:40:07;6.93;;;2.00;;
20034;SDS011;10178;48.034;9.800;2023-04-15T05:42:34;2.50;;;1.47;;
20034;SDS011;10178;48.034;9.800;2023-04-15T05:45:00;1.97;;;1.30;;
20034;SDS011;10178;48.034;9.800;2023-04-15T05:47:29;5.63;;;1.77;;
20034;SDS011;10178;48.034;9.800;2023-04-15T05:49:55;2.00;;;1.50;;
20034;SDS011;10178;48.034;9.800;2023-04-15T05:52:22;2.08;;;1.40;;
20034;SDS011;10178;48.034;9.800;2023-04-15T05:54:48;2.00;;;1.33;;
20034;SDS011;10178;48.034;9.800;2023-04-15T05:57:14;3.63;;;1.50;;
20034;SDS011;10178;48.034;9.800;2023-04-15T05:59:40;2.20;;;1.40;;
20034;SDS011;10178;48.034;9.800;2023-04-15T06:02:06;2.40;;;1.40;;
20034;SDS011;10178;48.034;9.800;2023-04-15T06:04:33;6.25;;;2.75;;
20034;SDS011;10178;48.034;9.800;2023-04-15T06:06:59;3.35;;;1.80;;
20034;SDS011;10178;48.034;9.800;2023-04-15T06:09:24;3.97;;;1.83;;
20034;SDS011;10178;48.034;9.800;2023-04-15T06:11:50;1.70;;;1.30;;
20034;SDS011;10178;48.034;9.800;2023-04-15T06:14:17;1.65;;;1.50;;
20034;SDS011;10178;48.034;9.800;2023-04-15T06:16:42;1.65;;;1.50;;
20034;SDS011;10178;48.034;9.800;2023-04-15T06:19:08;3.40;;;1.60;;
20034;SDS011;10178;48.034;9.800;2023-04-15T06:21:33;1.63;;;1.38;;
20034;SDS011;10178;48.034;9.800;2023-04-15T06:23:59;2.42;;;1.60;;
20034;SDS011;10178;48.034;9.800;2023-04-15T06:26:25;3.40;;;1.50;;
20034;SDS011;10178;48.034;9.800;2023-04-15T06:28:52;3.20;;;1.70;;
20034;SDS011;10178;48.034;9.800;2023-04-15T06:31:17;3.88;;;1.50;;
20034;SDS011;10178;48.034;9.800;2023-04-15T06:33:43;3.00;;;1.38;;
20034;SDS011;10178;48.034;9.800;2023-04-15T06:36:09;3.23;;;1.70;;
20034;SDS011;10178;48.034;9.800;2023-04-15T06:38:35;4.68;;;1.70;;
20034;SDS011;10178;48.034;9.800;2023-04-15T06:41:01;2.00;;;1.50;;
20034;SDS011;10178;48.034;9.800;2023-04-15T06:43:27;1.40;;;1.30;;
20034;SDS011;10178;48.034;9.800;2023-04-15T06:45:53;2.83;;;1.52;;
20034;SDS011;10178;48.034;9.800;2023-04-15T06:48:19;2.43;;;1.50;;
20034;SDS011;10178;48.034;9.800;2023-04-15T06:50:44;1.73;;;1.40;;
20034;SDS011;10178;48.034;9.800;2023-04-15T06:53:10;2.72;;;1.60;;
20034;SDS011;10178;48.034;9.800;2023-04-15T06:55:36;3.58;;;1.48;;
20034;SDS011;10178;48.034;9.800;2023-04-15T06:58:01;1.80;;;1.52;;
20034;SDS011;10178;48.034;9.800;2023-04-15T07:00:27;1.95;;;1.10;;
20034;SDS011;10178;48.034;9.800;2023-04-15T07:02:53;2.30;;;1.35;;
20034;SDS011;10178;48.034;9.800;2023-04-15T07:05:19;2.20;;;1.38;;
20034;SDS011;10178;48.034;9.800;2023-04-15T07:07:45;1.73;;;1.33;;
20034;SDS011;10178;48.034;9.800;2023-04-15T07:10:10;2.05;;;1.40;;
20034;SDS011;10178;48.034;9.800;2023-04-15T07:12:36;1.60;;;1.45;;
20034;SDS011;10178;48.034;9.800;2023-04-15T07:15:02;2.55;;;1.13;;
20034;SDS011;10178;48.034;9.800;2023-04-15T07:17:29;3.10;;;1.38;;
20034;SDS011;10178;48.034;9.800;2023-04-15T07:19:54;1.80;;;1.30;;
20034;SDS011;10178;48.034;9.800;2023-04-15T07:22:20;2.50;;;1.40;;
20034;SDS011;10178;48.034;9.800;2023-04-15T07:24:45;2.88;;;1.10;;
20034;SDS011;10178;48.034;9.800;2023-04-15T07:27:11;2.38;;;1.27;;
20034;SDS011;10178;48.034;9.800;2023-04-15T07:29:36;2.85;;;1.10;;
20034;SDS011;10178;48.034;9.800;2023-04-15T07:32:02;2.42;;;1.17;;
20034;SDS011;10178;48.034;9.800;2023-04-15T07:34:28;1.42;;;1.20;;
20034;SDS011;10178;48.034;9.800;2023-04-15T07:36:53;2.63;;;1.27;;
20034;SDS011;10178;48.034;9.800;2023-04-15T07:39:19;2.58;;;1.40;;
20034;SDS011;10178;48.034;9.800;2023-04-15T07:41:45;1.35;;;1.15;;
20034;SDS011;10178;48.034;9.800;2023-04-15T07:44:10;2.67;;;1.15;;
20034;SDS011;10178;48.034;9.800;2023-04-15T07:46:38;1.30;;;1.20;;
20034;SDS011;10178;48.034;9.800;2023-04-15T07:49:04;1.45;;;1.20;;
20034;SDS011;10178;48.034;9.800;2023-04-15T07:51:30;2.25;;;1.42;;
20034;SDS011;10178;48.034;9.800;2023-04-15T07:53:56;3.13;;;1.77;;
20034;SDS011;10178;48.034;9.800;2023-04-15T07:56:21;1.73;;;1.08;;
20034;SDS011;10178;48.034;9.800;2023-04-15T07:58:47;1.55;;;1.17;;
20034;SDS011;10178;48.034;9.800;2023-04-15T08:01:12;1.77;;;1.05;;
20034;SDS011;10178;48.034;9.800;2023-04-15T08:03:38;2.10;;;1.40;;
20034;SDS011;10178;48.034;9.800;2023-04-15T08:06:04;2.15;;;1.40;;
20034;SDS011;10178;48.034;9.800;2023-04-15T08:08:29;3.50;;;1.42;;
20034;SDS011;10178;48.034;9.800;2023-04-15T08:10:57;2.55;;;1.45;;
20034;SDS011;10178;48.034;9.800;2023-04-15T08:13:22;2.70;;;1.38;;
20034;SDS011;10178;48.034;9.800;2023-04-15T08:15:53;1.77;;;1.13;;
20034;SDS011;10178;48.034;9.800;2023-04-15T08:18:38;3.40;;;1.40;;
20034;SDS011;10178;48.034;9.800;2023-04-15T08:21:04;1.95;;;1.17;;
20034;SDS011;10178;48.034;9.800;2023-04-15T08:23:30;2.13;;;1.02;;
20034;SDS011;10178;48.034;9.800;2023-04-15T08:25:57;1.40;;;1.25;;
20034;SDS011;10178;48.034;9.800;2023-04-15T08:28:23;2.50;;;1.40;;
20034;SDS011;10178;48.034;9.800;2023-04-15T08:30:48;1.67;;;1.17;;
20034;SDS011;10178;48.034;9.800;2023-04-15T08:33:14;3.05;;;1.20;;
20034;SDS011;10178;48.034;9.800;2023-04-15T08:35:40;3.03;;;1.15;;
20034;SDS011;10178;48.034;9.800;2023-04-15T08:38:06;1.25;;;1.13;;
20034;SDS011;10178;48.034;9.800;2023-04-15T08:40:35;3.38;;;1.00;;
20034;SDS011;10178;48.034;9.800;2023-04-15T08:43:07;1.27;;;1.10;;
20034;SDS011;10178;48.034;9.800;2023-04-15T08:45:36;4.85;;;1.38;;
20034;SDS011;10178;48.034;9.800;2023-04-15T08:48:04;2.05;;;1.17;;
20034;SDS011;10178;48.034;9.800;2023-04-15T08:50:31;2.45;;;1.50;;
20034;SDS011;10178;48.034;9.800;2023-04-15T08:53:00;5.07;;;1.70;;
20034;SDS011;10178;48.034;9.800;2023-04-15T08:55:27;4.22;;;1.60;;
20034;SDS011;10178;48.034;9.800;2023-04-15T08:57:57;4.43;;;1.60;;
20034;SDS011;10178;48.034;9.800;2023-04-15T09:00:23;3.85;;;1.42;;
20034;SDS011;10178;48.034;9.800;2023-04-15T09:02:49;2.58;;;1.27;;
20034;SDS011;10178;48.034;9.800;2023-04-15T09:05:16;4.40;;;1.30;;
20034;SDS011;10178;48.034;9.800;2023-04-15T09:07:41;2.72;;;1.20;;
20034;SDS011;10178;48.034;9.800;2023-04-15T09:10:07;4.57;;;1.60;;
20034;SDS011;10178;48.034;9.800;2023-04-15T09:12:34;6.13;;;1.70;;
20034;SDS011;10178;48.034;9.800;2023-04-15T09:15:01;4.50;;;1.23;;
20034;SDS011;10178;48.034;9.800;2023-04-15T09:17:27;3.42;;;1.27;;
20034;SDS011;10178;48.034;9.800;2023-04-15T09:22:35;4.95;;;1.30;;
20034;SDS011;10178;48.034;9.800;2023-04-15T09:27:59;1.40;;;1.30;;
20034;SDS011;10178;48.034;9.800;2023-04-15T09:30:26;2.97;;;1.30;;
20034;SDS011;10178;48.034;9.800;2023-04-15T09:32:56;2.60;;;1.60;;
20034;SDS011;10178;48.034;9.800;2023-04-15T09:35:24;2.45;;;0.98;;
20034;SDS011;10178;48.034;9.800;2023-04-15T09:37:51;3.55;;;1.05;;
20034;SDS011;10178;48.034;9.800;2023-04-15T09:40:36;2.03;;;1.20;;
20034;SDS011;10178;48.034;9.800;2023-04-15T09:43:04;3.70;;;1.33;;
20034;SDS011;10178;48.034;9.800;2023-04-15T09:45:31;5.60;;;1.77;;
20034;SDS011;10178;48.034;9.800;2023-04-15T09:47:57;2.47;;;1.17;;
20034;SDS011;10178;48.034;9.800;2023-04-15T09:50:28;4.05;;;1.80;;
20034;SDS011;10178;48.034;9.800;2023-04-15T09:52:54;3.25;;;1.30;;
20034;SDS011;10178;48.034;9.800;2023-04-15T09:55:20;2.85;;;1.85;;
20034;SDS011;10178;48.034;9.800;2023-04-15T09:57:46;2.42;;;1.70;;
20034;SDS011;10178;48.034;9.800;2023-04-15T10:00:12;8.88;;;2.00;;
20034;SDS011;10178;48.034;9.800;2023-04-15T10:02:39;1.85;;;1.40;;
20034;SDS011;10178;48.034;9.800;2023-04-15T10:05:06;2.20;;;1.40;;
20034;SDS011;10178;48.034;9.800;2023-04-15T10:07:34;3.53;;;1.73;;
20034;SDS011;10178;48.034;9.800;2023-04-15T10:10:00;2.58;;;1.65;;
20034;SDS011;10178;48.034;9.800;2023-04-15T10:12:28;7.25;;;2.28;;
20034;SDS011;10178;48.034;9.800;2023-04-15T10:14:57;4.15;;;1.50;;
20034;SDS011;10178;48.034;9.800;2023-04-15T10:17:31;3.95;;;1.50;;
20034;SDS011;10178;48.034;9.800;2023-04-15T10:20:02;3.80;;;2.33;;
20034;SDS011;10178;48.034;9.800;2023-04-15T10:22:29;2.13;;;1.25;;
20034;SDS011;10178;48.034;9.800;2023-04-15T10:24:56;6.03;;;1.40;;
20034;SDS011;10178;48.034;9.800;2023-04-15T10:27:24;4.15;;;1.35;;
20034;SDS011;10178;48.034;9.800;2023-04-15T10:29:50;2.47;;;1.30;;
20034;SDS011;10178;48.034;9.800;2023-04-15T10:32:17;3.05;;;1.80;;
20034;SDS011;10178;48.034;9.800;2023-04-15T10:34:45;3.55;;;1.40;;
20034;SDS011;10178;48.034;9.800;2023-04-15T10:37:18;3.47;;;1.27;;
20034;SDS011;10178;48.034;9.800;2023-04-15T10:39:45;3.25;;;1.30;;
20034;SDS011;10178;48.034;9.800;2023-04-15T10:42:15;4.75;;;1.45;;
20034;SDS011;10178;48.034;9.800;2023-04-15T10:44:48;2.42;;;1.48;;
20034;SDS011;10178;48.034;9.800;2023-04-15T10:47:16;8.18;;;2.50;;
20034;SDS011;10178;48.034;9.800;2023-04-15T10:49:47;4.00;;;1.33;;
20034;SDS011;10178;48.034;9.800;2023-04-15T10:52:15;4.25;;;2.20;;
20034;SDS011;10178;48.034;9.800;2023-04-15T10:54:41;7.38;;;2.20;;
20034;SDS011;10178;48.034;9.800;2023-04-15T10:57:09;8.68;;;2.00;;
20034;SDS011;10178;48.034;9.800;2023-04-15T10:59:58;4.82;;;1.25;;
20034;SDS011;10178;48.034;9.800;2023-04-15T11:02:37;1.95;;;1.17;;
20034;SDS011;10178;48.034;9.800;2023-04-15T11:05:03;4.05;;;1.15;;
20034;SDS011;10178;48.034;9.800;2023-04-15T11:12:42;5.57;;;1.80;;
20034;SDS011;10178;48.034;9.800;2023-04-15T11:17:54;3.60;;;1.40;;
20034;SDS011;10178;48.034;9.800;2023-04-15T11:20:21;4.90;;;1.40;;
20034;SDS011;10178;48.034;9.800;2023-04-15T11:22:47;3.88;;;1.73;;
20034;SDS011;10178;48.034;9.800;2023-04-15T11:25:21;4.55;;;1.20;;
20034;SDS011;10178;48.034;9.800;2023-04-15T11:27:51;3.85;;;1.50;;
20034;SDS011;10178;48.034;9.800;2023-04-15T11:30:19;2.53;;;1.30;;
20034;SDS011;10178;48.034;9.800;2023-04-15T11:32:47;3.00;;;1.60;;
20034;SDS011;10178;48.034;9.800;2023-04-15T11:35:14;3.45;;;1.25;;
20034;SDS011;10178;48.034;9.800;2023-04-15T11:37:42;3.13;;;1.17;;
20034;SDS011;10178;48.034;9.800;2023-04-15T11:40:08;2.35;;;1.23;;
20034;SDS011;10178;48.034;9.800;2023-04-15T11:42:34;3.33;;;1.42;;
20034;SDS011;10178;48.034;9.800;2023-04-15T11:47:33;5.65;;;1.40;;
20034;SDS011;10178;48.034;9.800;2023-04-15T11:50:13;2.17;;;1.52;;
20034;SDS011;10178;48.034;9.800;2023-04-15T11:55:21;4.32;;;1.52;;
20034;SDS011;10178;48.034;9.800;2023-04-15T11:57:49;2.47;;;1.20;;
20034;SDS011;10178;48.034;9.800;2023-04-15T12:00:15;4.43;;;1.40;;
20034;SDS011;10178;48.034;9.800;2023-04-15T12:02:41;4.13;;;1.50;;
20034;SDS011;10178;48.034;9.800;2023-04-15T12:05:07;8.38;;;2.10;;
20034;SDS011;10178;48.034;9.800;2023-04-15T12:10:31;2.55;;;0.98;;
20034;SDS011;10178;48.034;9.800;2023-04-15T12:12:57;4.45;;;1.30;;
20034;SDS011;10178;48.034;9.800;2023-04-15T12:15:23;4.13;;;1.27;;
20034;SDS011;10178;48.034;9.800;2023-04-15T12:17:48;5.22;;;1.52;;
20034;SDS011;10178;48.034;9.800;2023-04-15T12:20:24;4.20;;;1.40;;
20034;SDS011;10178;48.034;9.800;2023-04-15T12:22:50;5.03;;;1.58;;
20034;SDS011;10178;48.034;9.800;2023-04-15T12:25:16;4.00;;;1.25;;
20034;SDS011;10178;48.034;9.800;2023-04-15T12:27:49;3.53;;;1.45;;
20034;SDS011;10178;48.034;9.800;2023-04-15T12:30:15;2.10;;;1.10;;
20034;SDS011;10178;48.034;9.800;2023-04-15T12:32:41;4.90;;;1.30;;
20034;SDS011;10178;48.034;9.800;2023-04-15T12:35:08;3.17;;;1.15;;
20034;SDS011;10178;48.034;9.800;2023-04-15T12:37:33;4.20;;;1.20;;
20034;SDS011;10178;48.034;9.800;2023-04-15T12:39:59;1.98;;;1.10;;
20034;SDS011;10178;48.034;9.800;2023-04-15T12:42:24;3.20;;;1.00;;
20034;SDS011;10178;48.034;9.800;2023-04-15T12:44:50;3.75;;;1.20;;
20034;SDS011;10178;48.034;9.800;2023-04-15T12:47:16;3.72;;;1.27;;
20034;SDS011;10178;48.034;9.800;2023-04-15T12:49:41;1.85;;;1.00;;
20034;SDS011;10178;48.034;9.800;2023-04-15T12:52:07;4.70;;;1.30;;
20034;SDS011;10178;48.034;9.800;2023-04-15T12:54:34;4.65;;;1.33;;
20034;SDS011;10178;48.034;9.800;2023-04-15T12:57:00;4.07;;;1.27;;
20034;SDS011;10178;48.034;9.800;2023-04-15T12:59:27;1.85;;;0.93;;
20034;SDS011;10178;48.034;9.800;2023-04-15T13:01:53;4.60;;;1.20;;
20034;SDS011;10178;48.034;9.800;2023-04-15T13:04:19;2.60;;;1.10;;
20034;SDS011;10178;48.034;9.800;2023-04-15T13:06:45;2.78;;;1.15;;
20034;SDS011;10178;48.034;9.800;2023-04-15T13:09:10;4.82;;;1.10;;
20034;SDS011;10178;48.034;9.800;2023-04-15T13:11:36;3.97;;;1.15;;
20034;SDS011;10178;48.034;9.800;2023-04-15T13:14:06;2.83;;;1.38;;
20034;SDS011;10178;48.034;9.800;2023-04-15T13:16:33;3.63;;;0.93;;
20034;SDS011;10178;48.034;9.800;2023-04-15T13:18:59;2.38;;;1.30;;
20034;SDS011;10178;48.034;9.800;2023-04-15T13:21:26;1.50;;;0.90;;
20034;SDS011;10178;48.034;9.800;2023-04-15T13:23:52;3.63;;;1.08;;
20034;SDS011;10178;48.034;9.800;2023-04-15T13:26:18;2.65;;;1.23;;
20034;SDS011;10178;48.034;9.800;2023-04-15T13:28:44;4.35;;;1.58;;
20034;SDS011;10178;48.034;9.800;2023-04-15T13:31:10;4.45;;;1.38;;
20034;SDS011;10178;48.034;9.800;2023-04-15T13:33:36;2.55;;;1.20;;
20034;SDS011;10178;48.034;9.800;2023-04-15T13:36:01;2.90;;;1.30;;
20034;SDS011;10178;48.034;9.800;2023-04-15T13:38:27;2.72;;;1.52;;
20034;SDS011;10178;48.034;9.800;2023-04-15T13:40:53;3.55;;;1.75;;
20034;SDS011;10178;48.034;9.800;2023-04-15T13:43:18;2.28;;;1.40;;
20034;SDS011;10178;48.034;9.800;2023-04-15T13:45:45;3.83;;;1.73;;
20034;SDS011;10178;48.034;9.800;2023-04-15T13:48:11;3.65;;;1.83;;
20034;SDS011;10178;48.034;9.800;2023-04-15T13:50:37;5.22;;;1.80;;
20034;SDS011;10178;48.034;9.800;2023-04-15T13:53:02;4.60;;;1.75;;
20034;SDS011;10178;48.034;9.800;2023-04-15T13:55:28;3.58;;;1.90;;
20034;SDS011;10178;48.034;9.800;2023-04-15T13:57:53;3.00;;;1.50;;
20034;SDS011;10178;48.034;9.800;2023-04-15T14:00:20;3.83;;;1.90;;
20034;SDS011;10178;48.034;9.800;2023-04-15T14:02:46;1.85;;;1.50;;
20034;SDS011;10178;48.034;9.800;2023-04-15T14:05:12;3.28;;;1.65;;
20034;SDS011;10178;48.034;9.800;2023-04-15T14:07:37;2.78;;;1.55;;
20034;SDS011;10178;48.034;9.800;2023-04-15T14:10:03;4.45;;;1.50;;
20034;SDS011;10178;48.034;9.800;2023-04-15T14:12:29;2.08;;;1.48;;
20034;SDS011;10178;48.034;9.800;2023-04-15T14:14:55;2.92;;;1.80;;
20034;SDS011;10178;48.034;9.800;2023-04-15T14:17:20;3.10;;;1.67;;
20034;SDS011;10178;48.034;9.800;2023-04-15T14:19:46;5.45;;;2.00;;
20034;SDS011;10178;48.034;9.800;2023-04-15T14:22:12;5.45;;;1.77;;
20034;SDS011;10178;48.034;9.800;2023-04-15T14:24:37;3.35;;;1.80;;
20034;SDS011;10178;48.034;9.800;2023-04-15T14:27:03;8.57;;;2.03;;
20034;SDS011;10178;48.034;9.800;2023-04-15T14:29:28;3.00;;;1.50;;
20034;SDS011;10178;48.034;9.800;2023-04-15T14:31:55;2.03;;;1.35;;
20034;SDS011;10178;48.034;9.800;2023-04-15T14:34:22;4.82;;;1.88;;
20034;SDS011;10178;48.034;9.800;2023-04-15T14:36:49;2.45;;;2.25;;
20034;SDS011;10178;48.034;9.800;2023-04-15T14:39:17;2.85;;;2.15;;
20034;SDS011;10178;48.034;9.800;2023-04-15T14:41:43;2.40;;;1.60;;
20034;SDS011;10178;48.034;9.800;2023-04-15T14:44:08;6.20;;;3.30;;
20034;SDS011;10178;48.034;9.800;2023-04-15T14:46:35;5.05;;;3.30;;
20034;SDS011;10178;48.034;9.800;2023-04-15T14:49:02;5.82;;;3.20;;
20034;SDS011;10178;48.034;9.800;2023-04-15T14:51:27;6.90;;;2.80;;
20034;SDS011;10178;48.034;9.800;2023-04-15T14:53:53;5.22;;;2.65;;
20034;SDS011;10178;48.034;9.800;2023-04-15T14:56:19;3.33;;;2.70;;
20034;SDS011;10178;48.034;9.800;2023-04-15T14:58:44;7.80;;;2.67;;
20034;SDS011;10178;48.034;9.800;2023-04-15T15:01:10;5.30;;;2.60;;
20034;SDS011;10178;48.034;9.800;2023-04-15T15:03:36;3.33;;;2.45;;
20034;SDS011;10178;48.034;9.800;2023-04-15T15:06:02;3.40;;;2.35;;